KAID/AID METAR and TAF weather

Enter ICAO airport designator
Station Type Date Time Source
KAID METAR 2020/07/10 13:35 UTC NOAA

KAID 101335Z AUTO 24006KT 10SM BKN014 OVC060 26/22 A2984 RMK AO2 T02550223


Station Type Date Time Source
KAID Decoded METAR 2020/07/10 13:35 UTC NOAA

Anderson Municipal, IN, United States (KAID) 40-07N 085-37W
Jul 10, 2020 - 09:35 AM EDT / 2020.07.10 1335 UTC
Wind: from the WSW (240 degrees) at 7 MPH (6 KT):0
Visibility: 10 mile(s):0
Sky conditions: overcast
Temperature: 77.9 F (25.5 C)
Dew Point: 72.1 F (22.3 C)
Relative Humidity: 82%
Pressure (altimeter): 29.84 in. Hg (1010 hPa)
ob: KAID 101335Z AUTO 24006KT 10SM BKN014 OVC060 26/22 A2984 RMK AO2 T02550223
cycle: 13

Station Type Date Time Source
KAID TAF UTC NOAA

Error!

Example: see airport list